Time;durP1;ratioP1;P1;durP2;ratioP2;P2;SDS_P1;SDS_P2;PMS_P1;PMS_P2;Temp;Humidity;BMP_temperature;BMP_pressure;BME280_temperature;BME280_humidity;BME280_pressure;Samples;Min_cycle;Max_cycle;Signal;HPM_P1;HPM_P2
2023/12/14 00:01:26;;;;;;;1.33;1.23;;;;;;;6.19;100.00;97030.34;5094487;28;20210;-72
2023/12/14 00:03:53;;;;;;;2.50;1.53;;;;;;;6.22;100.00;97032.56;5094483;28;20211;-72
2023/12/14 00:06:19;;;;;;;1.73;1.50;;;;;;;6.24;100.00;97030.53;5094004;28;20211;-72
2023/12/14 00:08:45;;;;;;;1.53;1.43;;;;;;;6.21;100.00;97030.97;5094319;28;20211;-72
2023/12/14 00:11:12;;;;;;;2.57;1.50;;;;;;;6.27;100.00;97039.84;5094349;28;20208;-72
2023/12/14 00:13:39;;;;;;;2.57;1.50;;;;;;;6.29;100.00;97046.50;5094270;28;20210;-72
2023/12/14 00:16:06;;;;;;;1.60;1.50;;;;;;;6.29;100.00;97045.72;5093945;28;20208;-72
2023/12/14 00:18:32;;;;;;;1.30;1.30;;;;;;;6.26;100.00;97049.59;5093839;28;20714;-72
2023/12/14 00:20:58;;;;;;;2.23;1.60;;;;;;;6.27;100.00;97050.38;5094099;28;20223;-72
2023/12/14 00:23:25;;;;;;;1.57;1.47;;;;;;;6.31;100.00;97062.94;5094058;28;20210;-72
2023/12/14 00:25:51;;;;;;;1.43;1.27;;;;;;;6.30;100.00;97049.97;5093791;28;20667;-72
2023/12/14 00:28:18;;;;;;;1.80;1.70;;;;;;;6.23;100.00;97052.66;5093116;28;20199;-72
2023/12/14 00:30:44;;;;;;;2.70;1.50;;;;;;;6.25;100.00;97053.25;5093933;28;20236;-72
2023/12/14 00:33:11;;;;;;;2.97;1.93;;;;;;;6.25;100.00;97063.00;5093832;28;20200;-72
2023/12/14 00:35:37;;;;;;;3.07;1.73;;;;;;;6.29;100.00;97058.91;5093756;28;20199;-72
2023/12/14 00:38:03;;;;;;;2.17;1.90;;;;;;;6.16;100.00;97064.28;5093702;28;20224;-72
2023/12/14 00:40:30;;;;;;;4.03;2.33;;;;;;;6.20;100.00;97062.84;5093705;28;20219;-72
2023/12/14 00:42:56;;;;;;;4.10;2.23;;;;;;;6.21;100.00;97065.28;5093772;28;20226;-72
2023/12/14 00:45:22;;;;;;;4.20;2.67;;;;;;;6.21;100.00;97072.38;5093748;28;20200;-72
2023/12/14 00:47:49;;;;;;;4.07;2.80;;;;;;;6.16;100.00;97074.84;5093506;28;20212;-72
2023/12/14 00:50:15;;;;;;;3.17;2.67;;;;;;;6.19;100.00;97079.72;5093685;28;20220;-72
2023/12/14 00:52:41;;;;;;;4.33;2.53;;;;;;;6.15;100.00;97083.78;5093740;28;20232;-72
2023/12/14 00:55:08;;;;;;;5.83;2.53;;;;;;;6.12;100.00;97084.22;5094784;28;20199;-72
2023/12/14 00:57:34;;;;;;;2.10;1.87;;;;;;;6.12;100.00;97086.84;5093566;28;20228;-72
2023/12/14 01:00:00;;;;;;;2.60;1.90;;;;;;;6.13;100.00;97094.56;5093255;28;20706;-72
2023/12/14 01:02:27;;;;;;;2.90;2.57;;;;;;;6.12;100.00;97100.03;5093307;28;20210;-72
2023/12/14 01:04:53;;;;;;;3.10;1.97;;;;;;;6.21;100.00;97098.75;5093593;28;20218;-72
2023/12/14 01:07:19;;;;;;;2.23;1.60;;;;;;;6.26;100.00;97101.56;5093532;28;20203;-72
2023/12/14 01:09:46;;;;;;;3.10;1.70;;;;;;;6.25;100.00;97110.50;5093432;28;20230;-72
2023/12/14 01:12:12;;;;;;;4.20;2.17;;;;;;;6.25;100.00;97115.78;5093479;28;20208;-72
2023/12/14 01:14:39;;;;;;;1.80;1.70;;;;;;;6.27;100.00;97113.72;5093435;28;20206;-72
2023/12/14 01:17:05;;;;;;;3.40;2.13;;;;;;;6.29;100.00;97116.97;5093439;28;20211;-72
2023/12/14 01:19:31;;;;;;;2.30;2.10;;;;;;;6.33;100.00;97126.09;5093400;28;20224;-72
2023/12/14 01:21:58;;;;;;;2.20;1.77;;;;;;;6.32;100.00;97124.44;5093457;28;20299;-72
2023/12/14 01:24:24;;;;;;;4.87;3.40;;;;;;;6.32;100.00;97132.38;5093422;28;20223;-72
2023/12/14 01:26:50;;;;;;;13.30;9.90;;;;;;;6.26;100.00;97131.41;5093350;28;20204;-72
2023/12/14 01:29:16;;;;;;;15.90;10.97;;;;;;;6.32;100.00;97132.38;5093341;28;20220;-72
2023/12/14 01:31:42;;;;;;;13.77;9.33;;;;;;;6.33;100.00;97139.28;5093029;28;20210;-72
2023/12/14 01:34:11;;;;;;;11.23;6.73;;;;;;;6.32;100.00;97145.56;5093038;28;20212;-72
2023/12/14 01:36:38;;;;;;;11.67;7.43;;;;;;;6.30;100.00;97144.97;5093212;28;20210;-72
2023/12/14 01:39:05;;;;;;;9.53;6.67;;;;;;;6.26;100.00;97149.06;5093499;28;20593;-72
2023/12/14 01:41:31;;;;;;;9.00;5.63;;;;;;;6.29;100.00;97151.28;5096854;28;20685;-72
2023/12/14 01:43:58;;;;;;;7.20;4.83;;;;;;;6.24;100.00;97151.91;5097166;28;20200;-72
2023/12/14 01:46:24;;;;;;;4.17;2.80;;;;;;;6.25;100.00;97158.81;5096793;28;20666;-72
2023/12/14 01:48:51;;;;;;;2.40;1.83;;;;;;;6.24;100.00;97166.97;5096609;28;20685;-72
2023/12/14 01:51:18;;;;;;;3.03;2.10;;;;;;;6.24;100.00;97166.97;5096670;28;20204;-72
2023/12/14 01:53:45;;;;;;;2.17;1.60;;;;;;;6.24;100.00;97167.75;5096933;28;20199;-72
2023/12/14 01:56:11;;;;;;;2.77;1.10;;;;;;;6.21;100.00;97164.75;5096915;28;20206;-72
2023/12/14 01:58:37;;;;;;;1.80;1.13;;;;;;;6.19;100.00;97166.78;5096584;28;20228;-72
2023/12/14 02:01:11;;;;;;;0.90;0.90;;;;;;;6.16;100.00;97169.84;5096773;28;20204;-72
2023/12/14 02:03:45;;;;;;;1.50;0.93;;;;;;;6.18;100.00;97181.81;5096803;28;20184;-72
2023/12/14 02:06:11;;;;;;;1.57;1.20;;;;;;;6.17;100.00;97185.47;5096759;28;20249;-72
2023/12/14 02:08:38;;;;;;;0.80;0.80;;;;;;;6.15;100.00;97184.06;5096566;28;20202;-72
2023/12/14 02:11:04;;;;;;;2.73;0.97;;;;;;;6.13;100.00;97184.28;5096685;28;20212;-72
2023/12/14 02:13:30;;;;;;;2.10;1.17;;;;;;;6.07;100.00;97190.38;5096615;28;20215;-72
2023/12/14 02:15:57;;;;;;;2.73;1.00;;;;;;;6.02;100.00;97195.47;5096539;28;20204;-72
2023/12/14 02:18:23;;;;;;;1.43;1.00;;;;;;;6.01;100.00;97198.34;5096452;28;20223;-72
2023/12/14 02:20:49;;;;;;;1.60;1.00;;;;;;;5.99;100.00;97195.09;5096264;28;20231;-72
2023/12/14 02:23:16;;;;;;;2.20;1.10;;;;;;;5.97;100.00;97199.78;5096088;28;20219;-72
2023/12/14 02:25:42;;;;;;;1.37;1.07;;;;;;;5.98;100.00;97198.75;5096377;28;20599;-72
2023/12/14 02:28:08;;;;;;;4.30;1.17;;;;;;;6.02;100.00;97194.69;5095947;28;20667;-72
2023/12/14 02:30:35;;;;;;;2.60;1.10;;;;;;;6.04;100.00;97203.19;5095842;28;20593;-72
2023/12/14 02:33:01;;;;;;;1.33;0.90;;;;;;;6.06;100.00;97209.09;5096230;28;20208;-72
2023/12/14 02:35:28;;;;;;;1.53;1.03;;;;;;;6.13;100.00;97212.47;5096152;28;20208;-72
2023/12/14 02:37:54;;;;;;;2.20;0.87;;;;;;;6.13;100.00;97215.13;5095752;28;20227;-72
2023/12/14 02:40:21;;;;;;;0.67;0.67;;;;;;;6.16;100.00;97212.84;5096494;28;20228;-72
2023/12/14 02:42:48;;;;;;;1.23;0.90;;;;;;;6.18;100.00;97215.28;5096031;28;20200;-72
2023/12/14 02:45:14;;;;;;;1.07;0.80;;;;;;;6.17;100.00;97211.03;5095942;28;20218;-72
2023/12/14 02:47:40;;;;;;;1.90;0.90;;;;;;;6.12;100.00;97222.25;5095564;28;20212;-72
2023/12/14 02:50:07;;;;;;;1.07;0.73;;;;;;;6.13;100.00;97231.78;5095707;28;20230;-72
2023/12/14 02:52:33;;;;;;;1.07;0.70;;;;;;;6.18;100.00;97220.56;5094561;28;20542;-72
2023/12/14 02:55:00;;;;;;;1.17;1.03;;;;;;;6.17;100.00;97227.69;5095785;28;20208;-72
2023/12/14 02:57:26;;;;;;;1.80;0.70;;;;;;;6.16;100.00;97225.25;5095652;28;20211;-72
2023/12/14 02:59:53;;;;;;;1.60;0.87;;;;;;;6.17;100.00;97230.34;5095581;28;20228;-72
2023/12/14 03:02:19;;;;;;;1.13;0.90;;;;;;;6.17;100.00;97230.34;5095669;28;20204;-72
2023/12/14 03:04:45;;;;;;;1.40;0.53;;;;;;;6.20;100.00;97239.66;5095608;28;20206;-72
2023/12/14 03:07:12;;;;;;;2.10;0.70;;;;;;;6.26;100.00;97233.53;5095555;28;20206;-72
2023/12/14 03:09:43;;;;;;;2.90;0.70;;;;;;;6.27;100.00;97245.69;5095539;28;20224;-72
2023/12/14 03:12:09;;;;;;;1.07;0.60;;;;;;;6.25;100.00;97237.19;5095528;28;20184;-72
2023/12/14 03:14:36;;;;;;;1.17;0.70;;;;;;;6.26;100.00;97238.81;5095394;28;20226;-72
2023/12/14 03:17:02;;;;;;;1.63;0.60;;;;;;;6.29;100.00;97256.88;5095387;28;20200;-72
2023/12/14 03:19:29;;;;;;;1.37;0.70;;;;;;;6.30;100.00;97255.84;5094988;28;20232;-72
2023/12/14 03:21:55;;;;;;;0.57;0.57;;;;;;;6.29;100.00;97251.59;5095056;28;20200;-72
2023/12/14 03:24:22;;;;;;;1.53;0.80;;;;;;;6.28;100.00;97261.31;5095102;28;20210;-72
2023/12/14 03:26:48;;;;;;;0.90;0.60;;;;;;;6.30;100.00;97266.41;5095060;28;20211;-72
2023/12/14 03:29:14;;;;;;;0.70;0.60;;;;;;;6.33;100.00;97269.41;5094957;28;20222;-72
2023/12/14 03:31:41;;;;;;;1.27;0.77;;;;;;;6.24;100.00;97273.31;5094690;28;20206;-72
2023/12/14 03:34:07;;;;;;;0.50;0.50;;;;;;;6.29;100.00;97276.13;5094600;28;20215;-72
2023/12/14 03:36:33;;;;;;;0.63;0.63;;;;;;;6.17;100.00;97287.56;5094953;28;20215;-72
2023/12/14 03:39:00;;;;;;;2.13;0.80;;;;;;;6.16;100.00;97297.28;5094683;28;20228;-72
2023/12/14 03:41:26;;;;;;;1.27;0.80;;;;;;;6.19;100.00;97296.88;5094629;28;20211;-72
2023/12/14 03:43:53;;;;;;;1.17;0.63;;;;;;;6.24;100.00;97299.72;5094516;28;20671;-72
2023/12/14 03:46:19;;;;;;;0.73;0.73;;;;;;;6.25;100.00;97303.16;5094567;28;20290;-72
2023/12/14 03:48:45;;;;;;;1.90;0.60;;;;;;;6.27;100.00;97301.13;5094385;28;20566;-72
2023/12/14 03:51:12;;;;;;;0.67;0.67;;;;;;;6.22;100.00;97308.84;5094696;28;20572;-72
2023/12/14 03:53:38;;;;;;;0.67;0.60;;;;;;;6.24;100.00;97307.63;5094562;28;20226;-72
2023/12/14 03:56:05;;;;;;;2.23;0.77;;;;;;;6.24;100.00;97314.75;5093996;28;20581;-72
2023/12/14 03:58:31;;;;;;;0.93;0.77;;;;;;;6.25;100.00;97317.16;5094373;28;20352;-72
2023/12/14 04:00:57;;;;;;;0.97;0.70;;;;;;;6.22;100.00;97322.88;5094375;28;20221;-72
2023/12/14 04:03:24;;;;;;;2.07;1.00;;;;;;;6.26;100.00;97317.97;5093934;28;20208;-72
2023/12/14 04:05:50;;;;;;;1.50;0.60;;;;;;;6.26;100.00;97324.06;5093912;28;20214;-72
2023/12/14 04:08:17;;;;;;;2.60;0.90;;;;;;;6.28;100.00;97327.31;5094182;28;20204;-72
2023/12/14 04:10:43;;;;;;;0.60;0.60;;;;;;;6.26;100.00;97333.81;5094040;28;20250;-72
2023/12/14 04:13:09;;;;;;;0.70;0.60;;;;;;;6.21;100.00;97342.38;5093751;28;20673;-72
2023/12/14 04:15:36;;;;;;;0.87;0.67;;;;;;;6.24;100.00;97351.69;5093802;28;20567;-72
2023/12/14 04:18:02;;;;;;;1.50;0.70;;;;;;;6.31;100.00;97353.28;5093689;28;20667;-72
2023/12/14 04:20:28;;;;;;;2.00;0.90;;;;;;;6.28;100.00;97363.44;5093637;28;20722;-72
2023/12/14 04:22:55;;;;;;;0.80;0.73;;;;;;;6.27;100.00;97356.53;5094014;28;20208;-72
2023/12/14 04:25:22;;;;;;;1.23;0.97;;;;;;;6.31;100.00;97363.03;5093759;28;20208;-72
2023/12/14 04:27:48;;;;;;;3.23;1.00;;;;;;;6.33;100.00;97366.28;5093711;28;20208;-72
2023/12/14 04:30:13;;;;;;;1.50;1.00;;;;;;;6.26;100.00;97365.47;5093850;28;20228;-72
2023/12/14 04:32:40;;;;;;;2.50;0.90;;;;;;;6.18;100.00;97376.25;5093878;28;20206;-72
2023/12/14 04:35:07;;;;;;;2.20;1.00;;;;;;;6.28;100.00;97381.91;5093770;28;20644;-72
2023/12/14 04:37:34;;;;;;;1.00;1.00;;;;;;;6.27;100.00;97375.84;5093147;28;20211;-72
2023/12/14 04:40:00;;;;;;;2.00;0.90;;;;;;;6.26;100.00;97381.31;5093118;28;20231;-72
2023/12/14 04:42:27;;;;;;;1.70;0.93;;;;;;;6.24;100.00;97378.09;5093558;28;20290;-72
2023/12/14 04:44:54;;;;;;;1.00;0.90;;;;;;;6.22;100.00;97380.09;5093512;28;20233;-72
2023/12/14 04:47:20;;;;;;;2.40;1.00;;;;;;;6.23;100.00;97387.00;5093064;28;20212;-72
2023/12/14 04:49:46;;;;;;;4.27;1.30;;;;;;;6.21;100.00;97392.50;5093567;28;20227;-72
2023/12/14 04:52:13;;;;;;;2.00;1.40;;;;;;;6.28;100.00;97395.09;5093003;28;20210;-72
2023/12/14 04:54:40;;;;;;;2.27;0.90;;;;;;;6.35;100.00;97395.91;5093554;28;20207;-72
2023/12/14 04:57:06;;;;;;;1.67;0.97;;;;;;;6.32;100.00;97393.69;5093409;28;20204;-72
2023/12/14 04:59:33;;;;;;;1.07;0.87;;;;;;;6.34;100.00;97404.84;5093275;28;20228;-72
2023/12/14 05:01:59;;;;;;;0.83;0.83;;;;;;;6.35;100.00;97406.47;5092842;28;20673;-72
2023/12/14 05:04:25;;;;;;;2.13;0.87;;;;;;;6.38;100.00;97406.06;5093053;28;20680;-72
2023/12/14 05:06:52;;;;;;;2.87;1.27;;;;;;;6.41;100.00;97413.53;5092894;28;20211;-72
2023/12/14 05:09:18;;;;;;;2.03;1.50;;;;;;;6.45;100.00;97417.41;5093099;28;20227;-72
2023/12/14 05:11:44;;;;;;;1.53;1.43;;;;;;;6.43;100.00;97420.25;5093242;28;20208;-72
2023/12/14 05:14:11;;;;;;;1.70;1.20;;;;;;;6.49;100.00;97431.81;5094185;28;20202;-72
2023/12/14 05:16:37;;;;;;;1.37;1.20;;;;;;;6.52;100.00;97428.75;5097125;28;20659;-72
2023/12/14 05:19:03;;;;;;;1.73;1.23;;;;;;;6.53;100.00;97438.28;5097216;28;20228;-72
2023/12/14 05:21:30;;;;;;;1.80;1.10;;;;;;;6.52;100.00;97436.69;5097727;28;20207;-72
2023/12/14 05:23:56;;;;;;;1.37;1.10;;;;;;;6.56;100.00;97440.53;5097211;28;20326;-72
2023/12/14 05:26:23;;;;;;;2.03;1.10;;;;;;;6.55;100.00;97438.88;5096794;28;20661;-72
2023/12/14 05:28:49;;;;;;;1.63;1.10;;;;;;;6.50;100.00;97446.63;5096904;28;20659;-72
2023/12/14 05:31:15;;;;;;;1.23;1.10;;;;;;;6.55;100.00;97455.56;5097036;28;20213;-72
2023/12/14 05:33:42;;;;;;;1.20;1.10;;;;;;;6.57;100.00;97464.09;5097125;28;20205;-72
2023/12/14 05:36:10;;;;;;;1.60;1.10;;;;;;;6.57;100.00;97465.91;5097069;28;20204;-72
2023/12/14 05:38:39;;;;;;;1.20;1.10;;;;;;;6.53;100.00;97472.63;5096827;28;20605;-72
2023/12/14 05:41:05;;;;;;;1.90;1.40;;;;;;;6.59;100.00;97477.06;5096523;28;20588;-72
2023/12/14 05:43:32;;;;;;;1.93;1.40;;;;;;;6.58;100.00;97489.47;5097043;28;20212;-72
2023/12/14 05:45:58;;;;;;;1.87;1.60;;;;;;;6.52;100.00;97489.50;5096874;28;20203;-72
2023/12/14 05:48:26;;;;;;;4.80;1.60;;;;;;;6.51;100.00;97495.78;5096254;28;20226;-72
2023/12/14 05:50:53;;;;;;;1.97;1.87;;;;;;;6.53;100.00;97497.22;5096529;28;20224;-72
2023/12/14 05:53:19;;;;;;;2.20;1.97;;;;;;;6.65;100.00;97497.38;5096477;28;20208;-72
2023/12/14 05:55:46;;;;;;;3.03;2.20;;;;;;;6.57;100.00;97497.59;5096216;28;20204;-72
2023/12/14 05:58:12;;;;;;;2.10;2.00;;;;;;;6.53;100.00;97505.13;5096179;28;20573;-72
2023/12/14 06:00:40;;;;;;;2.70;2.47;;;;;;;6.53;100.00;97504.31;5096440;28;20229;-72
2023/12/14 06:03:06;;;;;;;3.37;2.63;;;;;;;6.56;100.00;97506.53;5096559;28;20202;-72
2023/12/14 06:05:32;;;;;;;2.53;2.33;;;;;;;6.54;100.00;97509.38;5096339;28;20253;-72
2023/12/14 06:07:59;;;;;;;3.73;2.73;;;;;;;6.50;100.00;97516.09;5097167;28;20200;-72
2023/12/14 06:10:25;;;;;;;2.70;2.50;;;;;;;6.45;100.00;97512.44;5096703;28;20224;-72
2023/12/14 06:12:52;;;;;;;3.37;3.03;;;;;;;6.42;100.00;97516.31;5096292;28;20206;-72
2023/12/14 06:15:18;;;;;;;2.80;2.50;;;;;;;6.43;100.00;97517.94;5095536;28;20567;-72
2023/12/14 06:17:44;;;;;;;3.97;2.67;;;;;;;6.47;100.00;97526.28;5095910;28;20295;-72
2023/12/14 06:20:11;;;;;;;4.97;2.90;;;;;;;6.49;100.00;97534.78;5095800;28;20231;-72
2023/12/14 06:22:38;;;;;;;2.43;2.23;;;;;;;6.56;100.00;97536.38;5095908;28;20201;-72
2023/12/14 06:25:04;;;;;;;2.30;2.10;;;;;;;6.65;100.00;97545.72;5095535;28;20206;-72
2023/12/14 06:27:31;;;;;;;2.30;1.90;;;;;;;6.69;100.00;97540.84;5095828;28;20296;-72
2023/12/14 06:29:57;;;;;;;3.17;2.60;;;;;;;6.64;100.00;97546.75;5095487;28;20706;-72
2023/12/14 06:32:23;;;;;;;2.53;2.33;;;;;;;6.70;100.00;97547.75;5095912;28;20549;-72
2023/12/14 06:34:51;;;;;;;2.60;2.40;;;;;;;6.61;100.00;97549.78;5095563;28;20218;-72
2023/12/14 06:37:17;;;;;;;4.33;2.57;;;;;;;6.64;100.00;97557.31;5095546;28;20211;-72
2023/12/14 06:39:44;;;;;;;5.50;2.50;;;;;;;6.60;100.00;97557.94;5095196;28;20237;-72
2023/12/14 06:42:11;;;;;;;2.93;2.33;;;;;;;6.54;100.00;97564.84;5095303;28;20206;-72
2023/12/14 06:44:38;;;;;;;2.30;2.10;;;;;;;6.58;100.00;97575.81;5095169;28;20230;-72
2023/12/14 06:47:04;;;;;;;2.30;2.20;;;;;;;6.58;100.00;97570.53;5094985;28;20286;-72
2023/12/14 06:49:30;;;;;;;2.50;2.30;;;;;;;6.60;100.00;97585.13;5095071;28;20220;-72
2023/12/14 06:51:57;;;;;;;2.30;2.10;;;;;;;6.62;100.00;97598.16;5095019;28;20208;-72
2023/12/14 06:54:24;;;;;;;2.87;2.37;;;;;;;6.66;100.00;97594.09;5094871;28;20663;-72
2023/12/14 06:56:50;;;;;;;2.50;2.30;;;;;;;6.64;100.00;97596.91;5095059;28;20559;-72
2023/12/14 06:59:16;;;;;;;3.03;2.70;;;;;;;6.75;100.00;97608.69;5094733;28;20702;-72
2023/12/14 07:01:43;;;;;;;3.07;2.57;;;;;;;6.70;100.00;97609.28;5095352;28;20208;-72
2023/12/14 07:04:10;;;;;;;2.60;2.40;;;;;;;6.73;100.00;97616.81;5094783;28;20259;-73
2023/12/14 07:06:36;;;;;;;2.80;2.60;;;;;;;6.70;100.00;97624.34;5094729;28;20213;-72
2023/12/14 07:09:02;;;;;;;3.13;2.83;;;;;;;6.69;100.00;97633.31;5094813;28;20587;-72
2023/12/14 07:11:29;;;;;;;3.10;2.80;;;;;;;6.68;100.00;97642.22;5094374;28;20228;-73
2023/12/14 07:13:55;;;;;;;3.27;2.90;;;;;;;6.68;100.00;97650.13;5094547;28;20227;-73
2023/12/14 07:16:21;;;;;;;3.50;3.20;;;;;;;6.65;100.00;97658.50;5094555;28;20706;-73
2023/12/14 07:18:48;;;;;;;3.80;2.87;;;;;;;6.67;100.00;97659.09;5094532;28;20214;-73
2023/12/14 07:21:14;;;;;;;4.73;3.27;;;;;;;6.65;100.00;97672.50;5094623;28;20214;-73
2023/12/14 07:23:40;;;;;;;3.80;3.50;;;;;;;6.66;100.00;97668.81;5094414;28;20211;-73
2023/12/14 07:26:07;;;;;;;4.80;3.33;;;;;;;6.66;100.00;97670.69;5094468;28;20201;-73
2023/12/14 07:28:33;;;;;;;3.80;3.50;;;;;;;6.63;100.00;97679.00;5094485;28;20204;-73
2023/12/14 07:30:59;;;;;;;4.20;3.80;;;;;;;6.68;100.00;97674.75;5094404;28;20216;-72
2023/12/14 07:33:26;;;;;;;4.43;3.77;;;;;;;6.71;100.00;97686.72;5094564;28;20204;-73
2023/12/14 07:35:52;;;;;;;4.30;3.60;;;;;;;6.72;100.00;97690.97;5094455;28;20208;-72
2023/12/14 07:38:17;;;;;;;5.47;4.40;;;;;;;6.77;100.00;97681.44;5093980;28;20210;-72
2023/12/14 07:40:45;;;;;;;5.00;4.50;;;;;;;6.73;100.00;97689.97;5094215;28;20599;-72
2023/12/14 07:43:11;;;;;;;5.53;4.87;;;;;;;6.72;100.00;97691.81;5093968;28;20207;-72
2023/12/14 07:45:37;;;;;;;5.53;4.40;;;;;;;6.74;100.00;97696.91;5093956;28;20294;-72
2023/12/14 07:48:04;;;;;;;5.23;4.73;;;;;;;6.71;100.00;97697.28;5093552;28;20216;-72
2023/12/14 07:50:31;;;;;;;5.13;4.63;;;;;;;6.77;100.00;97705.22;5093527;28;20711;-72
2023/12/14 07:52:57;;;;;;;9.57;5.00;;;;;;;6.74;100.00;97712.75;5093853;28;20667;-72
2023/12/14 07:55:23;;;;;;;5.97;5.13;;;;;;;6.84;100.00;97710.50;5094037;28;20210;-72
2023/12/14 07:57:50;;;;;;;4.83;4.43;;;;;;;6.92;100.00;97707.66;5093983;28;20208;-72
2023/12/14 08:00:17;;;;;;;4.90;4.40;;;;;;;6.94;100.00;97714.38;5093733;28;20232;-72
2023/12/14 08:02:43;;;;;;;5.53;4.63;;;;;;;6.99;100.00;97727.78;5093982;28;20257;-72
2023/12/14 08:05:10;;;;;;;8.77;4.73;;;;;;;6.95;100.00;97721.28;5093849;28;20200;-72
2023/12/14 08:07:36;;;;;;;5.00;4.50;;;;;;;6.97;100.00;97726.34;5093971;28;20207;-72
2023/12/14 08:10:04;;;;;;;5.67;4.77;;;;;;;6.97;100.00;97729.00;5093812;28;20227;-72
2023/12/14 08:12:30;;;;;;;5.87;4.70;;;;;;;6.98;100.00;97735.91;5093928;28;20211;-72
2023/12/14 08:14:56;;;;;;;5.33;4.70;;;;;;;7.00;100.00;97744.44;5093683;28;20214;-72
2023/12/14 08:17:22;;;;;;;5.57;4.90;;;;;;;6.97;100.00;97753.56;5093407;28;20667;-72
2023/12/14 08:19:49;;;;;;;6.50;5.90;;;;;;;7.01;100.00;97759.28;5093148;28;20708;-72
2023/12/14 08:22:15;;;;;;;5.67;5.13;;;;;;;7.04;100.00;97769.44;5093312;28;20211;-72
2023/12/14 08:24:44;;;;;;;6.17;5.63;;;;;;;7.07;100.00;97769.88;5093380;28;20214;-72
2023/12/14 08:27:10;;;;;;;5.23;4.83;;;;;;;7.10;100.00;97772.09;5093159;28;20643;-72
2023/12/14 08:29:37;;;;;;;5.77;5.27;;;;;;;7.09;100.00;97777.56;5093439;28;20228;-72
2023/12/14 08:32:03;;;;;;;9.33;5.50;;;;;;;7.06;100.00;97788.56;5093337;28;20203;-72
2023/12/14 08:34:30;;;;;;;5.03;4.57;;;;;;;7.07;100.00;97787.53;5092963;28;20687;-72
2023/12/14 08:36:56;;;;;;;5.50;5.00;;;;;;;7.12;100.00;97788.56;5093620;28;20214;-73
2023/12/14 08:39:22;;;;;;;6.07;5.47;;;;;;;7.09;100.00;97802.19;5093391;28;20235;-72
2023/12/14 08:41:49;;;;;;;6.20;5.60;;;;;;;7.08;100.00;97800.56;5093457;28;20215;-72
2023/12/14 08:44:16;;;;;;;6.20;5.70;;;;;;;7.13;100.00;97810.50;5093172;28;20606;-72
2023/12/14 08:46:44;;;;;;;6.47;5.77;;;;;;;7.22;100.00;97823.34;5093384;28;20209;-72
2023/12/14 08:49:11;;;;;;;6.00;5.40;;;;;;;7.34;100.00;97826.19;5092239;28;20720;-72
2023/12/14 08:51:39;;;;;;;6.93;5.93;;;;;;;7.37;100.00;97823.94;5093457;28;20204;-72
2023/12/14 08:54:06;;;;;;;7.53;6.20;;;;;;;7.35;100.00;97838.38;5093579;28;20200;-72
2023/12/14 08:56:33;;;;;;;6.73;6.10;;;;;;;7.33;100.00;97841.22;5093469;28;20230;-72
2023/12/14 08:59:03;;;;;;;7.17;6.13;;;;;;;7.31;100.00;97842.44;5092863;28;20228;-72
2023/12/14 09:01:29;;;;;;;6.87;6.17;;;;;;;7.31;100.00;97847.72;5093151;28;20287;-72
2023/12/14 09:03:56;;;;;;;7.70;7.00;;;;;;;7.39;100.00;97851.00;5093165;28;20211;-72
2023/12/14 09:06:22;;;;;;;7.53;6.83;;;;;;;7.42;100.00;97855.06;5092865;28;20619;-72
2023/12/14 09:08:48;;;;;;;7.23;6.63;;;;;;;7.56;100.00;97856.69;5092749;28;20673;-72
2023/12/14 09:11:16;;;;;;;7.50;6.63;;;;;;;7.48;100.00;97870.13;5092928;28;20204;-72
2023/12/14 09:13:43;;;;;;;8.03;7.00;;;;;;;7.52;100.00;97872.13;5092882;28;20242;-72
2023/12/14 09:16:10;;;;;;;8.00;7.30;;;;;;;7.56;100.00;97872.56;5092711;28;20210;-72
2023/12/14 09:18:36;;;;;;;7.63;6.87;;;;;;;7.63;100.00;97873.34;5092439;28;20214;-73
2023/12/14 09:21:03;;;;;;;8.20;6.83;;;;;;;7.68;100.00;97873.56;5093241;28;20219;-72
2023/12/14 09:23:29;;;;;;;7.57;6.77;;;;;;;7.77;100.00;97877.63;5092943;28;20231;-72
2023/12/14 09:25:56;;;;;;;7.20;6.53;;;;;;;7.69;100.00;97880.50;5093353;28;20208;-72
2023/12/14 09:28:22;;;;;;;7.90;7.20;;;;;;;7.79;100.00;97888.81;5092863;28;20202;-72
2023/12/14 09:30:49;;;;;;;7.83;6.93;;;;;;;7.86;100.00;97905.50;5092702;28;20226;-72
2023/12/14 09:33:15;;;;;;;7.30;6.00;;;;;;;7.60;100.00;97910.81;5092507;28;20608;-72
2023/12/14 09:35:42;;;;;;;7.80;6.83;;;;;;;7.55;100.00;97914.06;5092488;28;20674;-72
2023/12/14 09:38:08;;;;;;;7.83;7.03;;;;;;;7.74;100.00;97912.44;5092853;28;20344;-72
2023/12/14 09:40:35;;;;;;;7.87;7.07;;;;;;;7.91;100.00;97919.75;5092858;28;20224;-72
2023/12/14 09:43:01;;;;;;;8.07;7.27;;;;;;;7.83;100.00;97921.81;5092875;28;20262;-72
2023/12/14 09:45:30;;;;;;;7.80;7.00;;;;;;;7.94;100.00;97924.66;5092803;28;20207;-72
2023/12/14 09:48:01;;;;;;;8.47;7.67;;;;;;;8.05;100.00;97933.78;5093097;28;20218;-72
2023/12/14 09:50:29;;;;;;;8.67;7.87;;;;;;;8.00;100.00;97925.63;5092443;28;20234;-72
2023/12/14 09:52:55;;;;;;;9.00;8.07;;;;;;;8.04;100.00;97929.50;5092828;28;20208;-73
2023/12/14 09:55:22;;;;;;;8.63;7.83;;;;;;;8.16;100.00;97930.50;5092655;28;20690;-74
2023/12/14 09:57:48;;;;;;;9.80;8.80;;;;;;;8.07;100.00;97934.41;5092486;28;20671;-73
2023/12/14 10:00:34;;;;;;;10.60;9.07;;;;;;;8.20;100.00;97934.38;5092815;28;20228;-74
2023/12/14 10:03:33;;;;;;;9.37;8.47;;;;;;;8.24;100.00;97931.13;5096497;28;20278;-74
2023/12/14 10:06:01;;;;;;;9.80;8.87;;;;;;;8.34;100.00;97930.72;5051718;28;20298;-74
2023/12/14 10:08:28;;;;;;;10.23;8.77;;;;;;;8.21;100.00;97938.69;5096132;28;20207;-72
2023/12/14 10:10:56;;;;;;;9.67;8.67;;;;;;;8.33;100.00;97942.31;5095790;28;20695;-73
2023/12/14 10:13:36;;;;;;;11.70;9.47;;;;;;;8.40;100.00;97938.63;5095795;28;20301;-74
2023/12/14 10:16:03;;;;;;;9.77;8.87;;;;;;;8.37;100.00;97952.28;5096087;28;20188;-74
2023/12/14 10:18:29;;;;;;;9.23;8.23;;;;;;;8.18;100.00;97957.59;5096308;28;20210;-74
2023/12/14 10:20:56;;;;;;;9.83;7.90;;;;;;;8.29;100.00;97955.16;5095556;28;20599;-72
2023/12/14 10:23:24;;;;;;;10.67;8.73;;;;;;;8.39;100.00;97975.94;5095994;28;20544;-72
2023/12/14 10:25:50;;;;;;;11.13;9.90;;;;;;;8.40;100.00;97970.44;5095850;28;20208;-72
2023/12/14 10:28:17;;;;;;;12.37;9.73;;;;;;;8.53;100.00;97967.75;5095972;28;20285;-73
2023/12/14 10:30:44;;;;;;;10.73;9.67;;;;;;;8.52;100.00;97975.91;5095605;28;20699;-74
2023/12/14 10:33:10;;;;;;;11.03;9.93;;;;;;;8.61;100.00;97972.00;5095887;28;20304;-74
2023/12/14 10:35:37;;;;;;;10.30;9.07;;;;;;;8.53;100.00;97974.88;5096543;28;20208;-74
2023/12/14 10:38:05;;;;;;;10.23;8.93;;;;;;;8.63;100.00;97969.94;5095925;28;20204;-74
2023/12/14 10:40:36;;;;;;;11.33;10.23;;;;;;;8.53;100.00;97980.16;5095070;28;20708;-74
2023/12/14 10:43:04;;;;;;;8.03;7.10;;;;;;;8.70;100.00;97984.00;5096006;28;20594;-74
2023/12/14 10:45:33;;;;;;;9.03;7.93;;;;;;;8.40;100.00;97988.16;5095610;28;20269;-72
2023/12/14 10:48:01;;;;;;;10.67;7.90;;;;;;;8.41;100.00;97992.44;5094911;28;20675;-72
2023/12/14 10:50:31;;;;;;;9.80;7.97;;;;;;;8.37;100.00;98001.81;5094701;28;20563;-72
2023/12/14 10:52:59;;;;;;;9.80;7.83;;;;;;;8.33;100.00;97997.94;5094778;28;20671;-72
2023/12/14 10:55:34;;;;;;;8.57;7.60;;;;;;;8.40;100.00;98007.50;5095049;28;20207;-72
2023/12/14 10:58:01;;;;;;;11.20;8.23;;;;;;;8.38;100.00;98009.53;5095259;28;20194;-72
2023/12/14 11:00:28;;;;;;;8.60;7.60;;;;;;;8.29;100.00;98010.78;5095024;28;20263;-74
2023/12/14 11:02:56;;;;;;;10.50;7.60;;;;;;;8.33;100.00;98009.34;5095095;28;20204;-72
2023/12/14 11:05:29;;;;;;;10.93;7.40;;;;;;;8.34;100.00;98018.13;5095223;28;20597;-72
2023/12/14 11:08:09;;;;;;;10.10;7.27;;;;;;;8.33;100.00;98013.84;5095186;28;20241;-73
2023/12/14 11:10:40;;;;;;;9.13;6.97;;;;;;;8.30;100.00;98019.53;5095161;28;20246;-72
2023/12/14 11:13:11;;;;;;;8.07;6.63;;;;;;;8.35;100.00;98019.72;5094206;28;20547;-72
2023/12/14 11:15:39;;;;;;;8.07;5.97;;;;;;;8.43;100.00;98011.59;5095179;28;20194;-72
2023/12/14 11:18:08;;;;;;;8.00;6.13;;;;;;;8.47;100.00;98012.81;5094908;28;20212;-72
2023/12/14 11:20:48;;;;;;;7.17;6.17;;;;;;;8.46;100.00;98006.69;5094583;28;20295;-72
2023/12/14 11:23:19;;;;;;;9.23;6.47;;;;;;;8.51;100.00;98012.16;5094651;28;20560;-73
2023/12/14 11:25:49;;;;;;;7.63;5.67;;;;;;;8.48;100.00;98017.06;5094524;28;20520;-73
2023/12/14 11:28:15;;;;;;;10.70;5.83;;;;;;;8.54;100.00;98025.00;5094522;28;20291;-73
2023/12/14 11:30:44;;;;;;;5.77;5.13;;;;;;;8.55;100.00;98029.28;5094590;28;20226;-73